sensor_id;sensor_type;location;lat;lon;timestamp;pressure;altitude;pressure_sealevel;temperature;humidity
12963;BME280;6546;49.882;8.666;2022-08-04T00:01:23;99535.19;;;25.20;51.38
12963;BME280;6546;49.882;8.666;2022-08-04T00:03:59;99529.88;;;25.20;51.77
12963;BME280;6546;49.882;8.666;2022-08-04T00:06:33;99534.78;;;25.26;51.60
12963;BME280;6546;49.882;8.666;2022-08-04T00:09:13;99531.09;;;25.29;51.54
12963;BME280;6546;49.882;8.666;2022-08-04T00:11:44;99529.78;;;25.22;51.49
12963;BME280;6546;49.882;8.666;2022-08-04T00:14:13;99530.25;;;25.28;51.47
12963;BME280;6546;49.882;8.666;2022-08-04T00:16:41;99534.59;;;25.29;51.50
12963;BME280;6546;49.882;8.666;2022-08-04T00:19:10;99531.28;;;25.26;51.69
12963;BME280;6546;49.882;8.666;2022-08-04T00:21:41;99528.16;;;25.19;51.67
12963;BME280;6546;49.882;8.666;2022-08-04T00:24:14;99532.31;;;25.23;51.68
12963;BME280;6546;49.882;8.666;2022-08-04T00:26:42;99526.94;;;25.25;51.74
12963;BME280;6546;49.882;8.666;2022-08-04T00:29:09;99541.22;;;25.22;51.67
12963;BME280;6546;49.882;8.666;2022-08-04T00:31:36;99535.91;;;25.22;51.69
12963;BME280;6546;49.882;8.666;2022-08-04T00:34:02;99532.31;;;25.23;51.87
12963;BME280;6546;49.882;8.666;2022-08-04T00:36:30;99537.63;;;25.23;51.90
12963;BME280;6546;49.882;8.666;2022-08-04T00:38:57;99535.91;;;25.22;51.49
12963;BME280;6546;49.882;8.666;2022-08-04T00:41:30;99535.25;;;25.19;52.02
12963;BME280;6546;49.882;8.666;2022-08-04T00:44:16;99535.91;;;25.22;51.76
12963;BME280;6546;49.882;8.666;2022-08-04T00:47:02;99524.66;;;25.19;52.24
12963;BME280;6546;49.882;8.666;2022-08-04T00:49:47;99528.75;;;25.10;52.07
12963;BME280;6546;49.882;8.666;2022-08-04T00:52:27;99531.41;;;25.10;52.30
12963;BME280;6546;49.882;8.666;2022-08-04T00:55:04;99527.91;;;25.09;52.04
12963;BME280;6546;49.882;8.666;2022-08-04T00:57:49;99528.34;;;25.02;52.08
12963;BME280;6546;49.882;8.666;2022-08-04T01:00:21;99531.09;;;25.00;52.35
12963;BME280;6546;49.882;8.666;2022-08-04T01:03:04;99528.16;;;25.05;52.10
12963;BME280;6546;49.882;8.666;2022-08-04T01:05:49;99529.84;;;25.06;52.07
12963;BME280;6546;49.882;8.666;2022-08-04T01:08:40;99521.84;;;25.07;52.06
12963;BME280;6546;49.882;8.666;2022-08-04T01:11:18;99521.19;;;25.04;52.14
12963;BME280;6546;49.882;8.666;2022-08-04T01:14:14;99527.31;;;25.04;52.02
12963;BME280;6546;49.882;8.666;2022-08-04T01:16:47;99514.38;;;25.00;51.92
12963;BME280;6546;49.882;8.666;2022-08-04T01:19:28;99518.72;;;25.01;52.15
12963;BME280;6546;49.882;8.666;2022-08-04T01:22:16;99517.50;;;24.92;52.36
12963;BME280;6546;49.882;8.666;2022-08-04T01:24:58;99525.56;;;24.91;52.45
12963;BME280;6546;49.882;8.666;2022-08-04T01:27:41;99536.91;;;24.78;52.75
12963;BME280;6546;49.882;8.666;2022-08-04T01:30:15;99529.78;;;24.64;55.12
12963;BME280;6546;49.882;8.666;2022-08-04T01:32:47;99531.88;;;24.59;56.28
12963;BME280;6546;49.882;8.666;2022-08-04T01:35:22;99529.34;;;24.58;56.29
12963;BME280;6546;49.882;8.666;2022-08-04T01:37:57;99533.09;;;24.54;56.53
12963;BME280;6546;49.882;8.666;2022-08-04T01:40:26;99526.31;;;24.50;58.22
12963;BME280;6546;49.882;8.666;2022-08-04T01:42:53;99524.78;;;24.46;58.29
12963;BME280;6546;49.882;8.666;2022-08-04T01:45:23;99524.13;;;24.42;58.54
12963;BME280;6546;49.882;8.666;2022-08-04T01:47:51;99522.75;;;24.35;59.41
12963;BME280;6546;49.882;8.666;2022-08-04T01:50:19;99523.44;;;24.38;57.30
12963;BME280;6546;49.882;8.666;2022-08-04T01:52:47;99521.03;;;24.34;58.96
12963;BME280;6546;49.882;8.666;2022-08-04T01:55:15;99515.06;;;24.46;57.47
12963;BME280;6546;49.882;8.666;2022-08-04T01:57:44;99515.72;;;24.50;56.31
12963;BME280;6546;49.882;8.666;2022-08-04T02:00:13;99514.78;;;24.51;56.08
12963;BME280;6546;49.882;8.666;2022-08-04T02:02:43;99507.78;;;24.50;56.03
12963;BME280;6546;49.882;8.666;2022-08-04T02:05:10;99510.53;;;24.48;55.68
12963;BME280;6546;49.882;8.666;2022-08-04T02:07:46;99509.88;;;24.45;55.74
12963;BME280;6546;49.882;8.666;2022-08-04T02:10:22;99499.19;;;24.46;55.81
12963;BME280;6546;49.882;8.666;2022-08-04T02:13:16;99505.50;;;24.44;55.75
12963;BME280;6546;49.882;8.666;2022-08-04T02:15:57;99507.56;;;24.38;56.74
12963;BME280;6546;49.882;8.666;2022-08-04T02:18:30;99505.88;;;24.37;57.60
12963;BME280;6546;49.882;8.666;2022-08-04T02:20:59;99498.31;;;24.31;57.26
12963;BME280;6546;49.882;8.666;2022-08-04T02:23:34;99494.88;;;24.29;56.70
12963;BME280;6546;49.882;8.666;2022-08-04T02:26:02;99499.97;;;24.18;56.87
12963;BME280;6546;49.882;8.666;2022-08-04T02:28:34;99500.69;;;24.06;58.48
12963;BME280;6546;49.882;8.666;2022-08-04T02:31:13;99500.03;;;24.02;59.58
12963;BME280;6546;49.882;8.666;2022-08-04T02:33:45;99502.41;;;24.07;58.36
12963;BME280;6546;49.882;8.666;2022-08-04T02:36:15;99505.50;;;23.99;59.03
12963;BME280;6546;49.882;8.666;2022-08-04T02:38:58;99499.72;;;23.93;59.91
12963;BME280;6546;49.882;8.666;2022-08-04T02:41:27;99494.88;;;23.85;61.04
12963;BME280;6546;49.882;8.666;2022-08-04T02:43:55;99507.06;;;23.87;61.12
12963;BME280;6546;49.882;8.666;2022-08-04T02:46:23;99508.25;;;23.98;58.07
12963;BME280;6546;49.882;8.666;2022-08-04T02:48:52;99505.50;;;23.99;57.53
12963;BME280;6546;49.882;8.666;2022-08-04T02:51:23;99498.72;;;24.09;56.21
12963;BME280;6546;49.882;8.666;2022-08-04T02:53:53;99499.56;;;24.10;56.35
12963;BME280;6546;49.882;8.666;2022-08-04T02:56:21;99489.94;;;24.09;56.63
12963;BME280;6546;49.882;8.666;2022-08-04T02:58:51;99494.66;;;24.04;56.86
12963;BME280;6546;49.882;8.666;2022-08-04T03:01:18;99492.41;;;23.98;57.73
12963;BME280;6546;49.882;8.666;2022-08-04T03:03:52;99498.81;;;23.94;57.74
12963;BME280;6546;49.882;8.666;2022-08-04T03:09:45;99501.78;;;23.87;58.05
12963;BME280;6546;49.882;8.666;2022-08-04T03:15:42;99502.94;;;23.68;59.06
12963;BME280;6546;49.882;8.666;2022-08-04T03:18:35;99502.59;;;23.58;59.02
12963;BME280;6546;49.882;8.666;2022-08-04T03:21:37;99507.13;;;23.56;59.19
12963;BME280;6546;49.882;8.666;2022-08-04T03:24:28;99517.19;;;23.49;59.62
12963;BME280;6546;49.882;8.666;2022-08-04T03:27:10;99519.91;;;23.48;59.59
12963;BME280;6546;49.882;8.666;2022-08-04T03:30:03;99509.84;;;23.38;60.32
12963;BME280;6546;49.882;8.666;2022-08-04T03:32:54;99511.06;;;23.33;60.46
12963;BME280;6546;49.882;8.666;2022-08-04T03:35:50;99508.34;;;23.34;60.45
12963;BME280;6546;49.882;8.666;2022-08-04T03:38:43;99510.56;;;23.26;60.70
12963;BME280;6546;49.882;8.666;2022-08-04T03:41:28;99511.91;;;23.33;60.38
12963;BME280;6546;49.882;8.666;2022-08-04T03:47:26;99511.84;;;23.19;61.36
12963;BME280;6546;49.882;8.666;2022-08-04T03:50:11;99507.81;;;23.12;61.50
12963;BME280;6546;49.882;8.666;2022-08-04T03:56:19;99511.31;;;22.97;62.24
12963;BME280;6546;49.882;8.666;2022-08-04T04:02:18;99514.41;;;22.87;63.26
12963;BME280;6546;49.882;8.666;2022-08-04T04:05:03;99519.09;;;22.82;63.41
12963;BME280;6546;49.882;8.666;2022-08-04T04:07:54;99516.78;;;22.76;63.67
12963;BME280;6546;49.882;8.666;2022-08-04T04:10:33;99521.13;;;22.77;63.72
12963;BME280;6546;49.882;8.666;2022-08-04T04:13:28;99518.22;;;22.82;63.69
12963;BME280;6546;49.882;8.666;2022-08-04T04:16:24;99524.59;;;22.78;63.86
12963;BME280;6546;49.882;8.666;2022-08-04T04:22:12;99514.91;;;22.78;64.31
12963;BME280;6546;49.882;8.666;2022-08-04T04:25:00;99511.31;;;22.79;63.62
12963;BME280;6546;49.882;8.666;2022-08-04T04:27:36;99512.22;;;22.80;64.27
12963;BME280;6546;49.882;8.666;2022-08-04T04:30:11;99521.13;;;22.77;63.82
12963;BME280;6546;49.882;8.666;2022-08-04T04:32:57;99506.91;;;22.64;64.83
12963;BME280;6546;49.882;8.666;2022-08-04T04:35:36;99507.34;;;22.72;64.84
12963;BME280;6546;49.882;8.666;2022-08-04T04:38:22;99518.78;;;22.71;64.96
12963;BME280;6546;49.882;8.666;2022-08-04T04:40:59;99519.13;;;22.65;64.97
12963;BME280;6546;49.882;8.666;2022-08-04T04:43:47;99520.53;;;22.72;65.27
12963;BME280;6546;49.882;8.666;2022-08-04T04:46:31;99515.66;;;22.64;65.40
12963;BME280;6546;49.882;8.666;2022-08-04T04:49:04;99524.41;;;22.65;65.41
12963;BME280;6546;49.882;8.666;2022-08-04T04:51:39;99521.78;;;22.65;65.50
12963;BME280;6546;49.882;8.666;2022-08-04T04:54:12;99524.25;;;22.68;64.88
12963;BME280;6546;49.882;8.666;2022-08-04T04:56:42;99527.50;;;22.73;65.41
12963;BME280;6546;49.882;8.666;2022-08-04T04:59:14;99528.44;;;22.72;65.29
12963;BME280;6546;49.882;8.666;2022-08-04T05:01:56;99520.34;;;22.75;64.72
12963;BME280;6546;49.882;8.666;2022-08-04T05:04:46;99529.03;;;22.77;64.96
12963;BME280;6546;49.882;8.666;2022-08-04T05:07:50;99526.75;;;22.87;64.31
12963;BME280;6546;49.882;8.666;2022-08-04T05:10:31;99520.41;;;22.91;64.33
12963;BME280;6546;49.882;8.666;2022-08-04T05:13:18;99523.97;;;22.90;65.07
12963;BME280;6546;49.882;8.666;2022-08-04T05:15:52;99516.84;;;23.08;64.49
12963;BME280;6546;49.882;8.666;2022-08-04T05:18:26;99516.53;;;23.14;64.58
12963;BME280;6546;49.882;8.666;2022-08-04T05:20:56;99516.69;;;23.11;64.60
12963;BME280;6546;49.882;8.666;2022-08-04T05:23:25;99524.00;;;23.22;64.61
12963;BME280;6546;49.882;8.666;2022-08-04T05:25:55;99526.22;;;23.29;64.47
12963;BME280;6546;49.882;8.666;2022-08-04T05:28:24;99528.78;;;23.31;64.18
12963;BME280;6546;49.882;8.666;2022-08-04T05:30:57;99533.03;;;23.33;64.46
12963;BME280;6546;49.882;8.666;2022-08-04T05:33:31;99535.84;;;23.30;64.44
12963;BME280;6546;49.882;8.666;2022-08-04T05:36:02;99538.31;;;23.33;64.99
12963;BME280;6546;49.882;8.666;2022-08-04T05:38:34;99542.31;;;23.40;65.01
12963;BME280;6546;49.882;8.666;2022-08-04T05:41:03;99545.13;;;23.37;65.34
12963;BME280;6546;49.882;8.666;2022-08-04T05:43:31;99544.53;;;23.48;65.14
12963;BME280;6546;49.882;8.666;2022-08-04T05:45:59;99542.22;;;23.58;65.11
12963;BME280;6546;49.882;8.666;2022-08-04T05:48:31;99542.56;;;23.68;65.65
12963;BME280;6546;49.882;8.666;2022-08-04T05:50:58;99537.63;;;23.77;65.01
12963;BME280;6546;49.882;8.666;2022-08-04T05:53:27;99535.38;;;23.85;64.86
12963;BME280;6546;49.882;8.666;2022-08-04T05:55:55;99543.72;;;23.94;64.75
12963;BME280;6546;49.882;8.666;2022-08-04T05:58:21;99549.88;;;24.08;64.39
12963;BME280;6546;49.882;8.666;2022-08-04T06:00:50;99542.09;;;24.21;64.17
12963;BME280;6546;49.882;8.666;2022-08-04T06:03:18;99550.41;;;24.29;63.72
12963;BME280;6546;49.882;8.666;2022-08-04T06:05:46;99548.34;;;24.34;63.78
12963;BME280;6546;49.882;8.666;2022-08-04T06:08:13;99543.19;;;24.47;63.69
12963;BME280;6546;49.882;8.666;2022-08-04T06:10:41;99545.38;;;24.69;63.51
12963;BME280;6546;49.882;8.666;2022-08-04T06:13:12;99548.41;;;24.92;62.70
12963;BME280;6546;49.882;8.666;2022-08-04T06:15:40;99547.28;;;25.10;61.93
12963;BME280;6546;49.882;8.666;2022-08-04T06:18:09;99539.53;;;25.21;61.56
12963;BME280;6546;49.882;8.666;2022-08-04T06:20:38;99546.75;;;25.32;61.73
12963;BME280;6546;49.882;8.666;2022-08-04T06:23:09;99544.03;;;25.33;61.60
12963;BME280;6546;49.882;8.666;2022-08-04T06:25:42;99543.25;;;25.46;61.57
12963;BME280;6546;49.882;8.666;2022-08-04T06:28:10;99535.25;;;25.60;62.52
12963;BME280;6546;49.882;8.666;2022-08-04T06:30:38;99531.03;;;25.70;60.65
12963;BME280;6546;49.882;8.666;2022-08-04T06:33:06;99549.03;;;25.79;61.32
12963;BME280;6546;49.882;8.666;2022-08-04T06:35:49;99538.34;;;25.94;61.58
12963;BME280;6546;49.882;8.666;2022-08-04T06:38:19;99543.69;;;26.06;61.11
12963;BME280;6546;49.882;8.666;2022-08-04T06:40:47;99542.84;;;26.19;62.75
12963;BME280;6546;49.882;8.666;2022-08-04T06:43:14;99540.66;;;26.25;63.39
12963;BME280;6546;49.882;8.666;2022-08-04T06:45:41;99547.97;;;26.34;63.25
12963;BME280;6546;49.882;8.666;2022-08-04T06:48:11;99542.44;;;26.37;63.63
12963;BME280;6546;49.882;8.666;2022-08-04T06:50:40;99548.31;;;26.43;63.97
12963;BME280;6546;49.882;8.666;2022-08-04T06:53:09;99549.50;;;26.51;64.06
12963;BME280;6546;49.882;8.666;2022-08-04T06:55:38;99550.22;;;26.66;62.30
12963;BME280;6546;49.882;8.666;2022-08-04T06:58:06;99555.84;;;26.87;60.99
12963;BME280;6546;49.882;8.666;2022-08-04T07:00:35;99559.00;;;27.05;63.31
12963;BME280;6546;49.882;8.666;2022-08-04T07:03:02;99559.25;;;27.15;60.64
12963;BME280;6546;49.882;8.666;2022-08-04T07:05:30;99558.41;;;27.14;62.00
12963;BME280;6546;49.882;8.666;2022-08-04T07:07:57;99558.41;;;27.14;58.75
12963;BME280;6546;49.882;8.666;2022-08-04T07:10:25;99550.47;;;27.25;59.25
12963;BME280;6546;49.882;8.666;2022-08-04T07:12:54;99550.06;;;27.31;56.87
12963;BME280;6546;49.882;8.666;2022-08-04T07:15:21;99558.06;;;27.43;55.82
12963;BME280;6546;49.882;8.666;2022-08-04T07:17:49;99559.69;;;27.69;55.37
12963;BME280;6546;49.882;8.666;2022-08-04T07:20:16;99557.38;;;27.89;54.73
12963;BME280;6546;49.882;8.666;2022-08-04T07:22:45;99551.88;;;28.03;54.54
12963;BME280;6546;49.882;8.666;2022-08-04T07:25:14;99550.91;;;28.04;53.04
12963;BME280;6546;49.882;8.666;2022-08-04T07:27:42;99546.31;;;28.06;52.60
12963;BME280;6546;49.882;8.666;2022-08-04T07:30:11;99551.63;;;28.06;50.65
12963;BME280;6546;49.882;8.666;2022-08-04T07:32:39;99544.41;;;28.08;50.18
12963;BME280;6546;49.882;8.666;2022-08-04T07:35:09;99546.09;;;28.09;50.64
12963;BME280;6546;49.882;8.666;2022-08-04T07:37:37;99544.91;;;28.13;50.95
12963;BME280;6546;49.882;8.666;2022-08-04T07:40:05;99554.34;;;28.17;50.48
12963;BME280;6546;49.882;8.666;2022-08-04T07:42:36;99550.00;;;28.27;49.74
12963;BME280;6546;49.882;8.666;2022-08-04T07:45:03;99552.09;;;28.35;47.71
12963;BME280;6546;49.882;8.666;2022-08-04T07:47:31;99553.34;;;28.42;47.66
12963;BME280;6546;49.882;8.666;2022-08-04T07:49:58;99550.09;;;28.50;45.87
12963;BME280;6546;49.882;8.666;2022-08-04T07:52:26;99536.19;;;28.57;46.08
12963;BME280;6546;49.882;8.666;2022-08-04T07:54:53;99539.47;;;28.72;45.27
12963;BME280;6546;49.882;8.666;2022-08-04T07:57:20;99551.94;;;28.83;44.30
12963;BME280;6546;49.882;8.666;2022-08-04T07:59:47;99554.72;;;28.81;46.16
12963;BME280;6546;49.882;8.666;2022-08-04T08:02:14;99546.25;;;28.76;46.47
12963;BME280;6546;49.882;8.666;2022-08-04T08:04:43;99539.94;;;28.77;44.96
12963;BME280;6546;49.882;8.666;2022-08-04T08:07:10;99543.22;;;28.81;44.78
12963;BME280;6546;49.882;8.666;2022-08-04T08:09:37;99542.97;;;28.84;46.51
12963;BME280;6546;49.882;8.666;2022-08-04T08:12:06;99539.72;;;28.92;45.24
12963;BME280;6546;49.882;8.666;2022-08-04T08:14:34;99540.09;;;28.98;45.42
12963;BME280;6546;49.882;8.666;2022-08-04T08:17:01;99542.28;;;29.04;45.94
12963;BME280;6546;49.882;8.666;2022-08-04T08:19:28;99549.16;;;29.07;43.59
12963;BME280;6546;49.882;8.666;2022-08-04T08:21:59;99541.69;;;29.12;43.49
12963;BME280;6546;49.882;8.666;2022-08-04T08:24:26;99539.81;;;29.24;43.41
12963;BME280;6546;49.882;8.666;2022-08-04T08:26:53;99541.13;;;29.41;42.30
12963;BME280;6546;49.882;8.666;2022-08-04T08:29:21;99544.00;;;29.49;43.03
12963;BME280;6546;49.882;8.666;2022-08-04T08:31:48;99545.25;;;29.56;43.10
12963;BME280;6546;49.882;8.666;2022-08-04T08:34:15;99539.66;;;29.59;42.68
12963;BME280;6546;49.882;8.666;2022-08-04T08:36:45;99542.41;;;29.69;42.80
12963;BME280;6546;49.882;8.666;2022-08-04T08:39:20;99534.28;;;29.70;43.42
12963;BME280;6546;49.882;8.666;2022-08-04T08:45:17;99534.59;;;29.88;42.38
12963;BME280;6546;49.882;8.666;2022-08-04T08:48:10;99542.06;;;29.94;43.03
12963;BME280;6546;49.882;8.666;2022-08-04T08:51:19;99530.75;;;30.02;43.88
12963;BME280;6546;49.882;8.666;2022-08-04T08:53:58;99536.03;;;30.13;44.65
12963;BME280;6546;49.882;8.666;2022-08-04T08:56:41;99537.09;;;30.22;44.37
12963;BME280;6546;49.882;8.666;2022-08-04T08:59:36;99532.34;;;30.25;44.49
12963;BME280;6546;49.882;8.666;2022-08-04T09:02:43;99530.78;;;30.23;43.90
12963;BME280;6546;49.882;8.666;2022-08-04T09:05:26;99532.63;;;30.22;43.69
12963;BME280;6546;49.882;8.666;2022-08-04T09:08:14;99536.97;;;30.23;44.11
12963;BME280;6546;49.882;8.666;2022-08-04T09:10:49;99538.19;;;30.40;42.79
12963;BME280;6546;49.882;8.666;2022-08-04T09:13:21;99533.34;;;30.55;42.65
12963;BME280;6546;49.882;8.666;2022-08-04T09:15:56;99534.94;;;30.67;43.58
12963;BME280;6546;49.882;8.666;2022-08-04T09:18:29;99528.13;;;30.74;42.71
12963;BME280;6546;49.882;8.666;2022-08-04T09:21:01;99533.41;;;30.86;41.99
12963;BME280;6546;49.882;8.666;2022-08-04T09:23:35;99534.69;;;31.01;41.61
12963;BME280;6546;49.882;8.666;2022-08-04T09:26:11;99530.94;;;31.13;42.71
12963;BME280;6546;49.882;8.666;2022-08-04T09:28:49;99534.78;;;31.20;42.44
12963;BME280;6546;49.882;8.666;2022-08-04T09:31:20;99537.06;;;31.35;40.38
12963;BME280;6546;49.882;8.666;2022-08-04T09:33:56;99541.75;;;31.52;39.94
12963;BME280;6546;49.882;8.666;2022-08-04T09:36:29;99546.97;;;31.63;39.40
12963;BME280;6546;49.882;8.666;2022-08-04T09:39:04;99540.50;;;31.75;39.24
12963;BME280;6546;49.882;8.666;2022-08-04T09:41:39;99538.00;;;31.84;39.62
12963;BME280;6546;49.882;8.666;2022-08-04T09:44:20;99541.50;;;31.94;38.92
12963;BME280;6546;49.882;8.666;2022-08-04T09:46:52;99536.31;;;31.92;39.26
12963;BME280;6546;49.882;8.666;2022-08-04T09:49:32;99540.66;;;31.93;39.08
12963;BME280;6546;49.882;8.666;2022-08-04T09:52:06;99538.28;;;32.00;38.82
12963;BME280;6546;49.882;8.666;2022-08-04T09:54:44;99530.09;;;32.01;39.25
12963;BME280;6546;49.882;8.666;2022-08-04T09:57:24;99540.25;;;32.08;38.55
12963;BME280;6546;49.882;8.666;2022-08-04T10:00:01;99533.03;;;32.18;38.77
12963;BME280;6546;49.882;8.666;2022-08-04T10:02:32;99530.91;;;32.31;37.72
12963;BME280;6546;49.882;8.666;2022-08-04T10:05:04;99527.81;;;32.45;37.74
12963;BME280;6546;49.882;8.666;2022-08-04T10:07:43;99525.78;;;32.57;37.21
12963;BME280;6546;49.882;8.666;2022-08-04T10:10:18;99532.84;;;32.58;37.57
12963;BME280;6546;49.882;8.666;2022-08-04T10:13:05;99522.41;;;32.55;36.19
12963;BME280;6546;49.882;8.666;2022-08-04T10:15:44;99516.78;;;32.58;37.66
12963;BME280;6546;49.882;8.666;2022-08-04T10:18:26;99523.50;;;32.72;36.57
12963;BME280;6546;49.882;8.666;2022-08-04T10:21:00;99519.97;;;32.71;36.01
12963;BME280;6546;49.882;8.666;2022-08-04T10:23:47;99521.94;;;32.69;36.83
12963;BME280;6546;49.882;8.666;2022-08-04T10:26:30;99517.69;;;32.76;37.94
12963;BME280;6546;49.882;8.666;2022-08-04T10:29:02;99511.88;;;32.81;36.62
12963;BME280;6546;49.882;8.666;2022-08-04T10:31:35;99513.31;;;32.75;36.07
12963;BME280;6546;49.882;8.666;2022-08-04T10:34:10;99509.34;;;32.79;36.54
12963;BME280;6546;49.882;8.666;2022-08-04T10:36:43;99508.75;;;32.86;36.06
12963;BME280;6546;49.882;8.666;2022-08-04T10:39:17;99501.44;;;32.88;36.38
12963;BME280;6546;49.882;8.666;2022-08-04T10:41:51;99509.91;;;32.83;35.08
12963;BME280;6546;49.882;8.666;2022-08-04T10:44:28;99499.63;;;32.78;34.62
12963;BME280;6546;49.882;8.666;2022-08-04T10:47:03;99509.03;;;32.83;34.85
12963;BME280;6546;49.882;8.666;2022-08-04T10:49:35;99506.78;;;32.88;32.94
12963;BME280;6546;49.882;8.666;2022-08-04T10:52:07;99504.13;;;32.78;33.34
12963;BME280;6546;49.882;8.666;2022-08-04T10:54:41;99498.25;;;32.74;33.56
12963;BME280;6546;49.882;8.666;2022-08-04T10:57:17;99498.63;;;32.79;34.66
12963;BME280;6546;49.882;8.666;2022-08-04T10:59:50;99497.81;;;32.79;33.89
12963;BME280;6546;49.882;8.666;2022-08-04T11:02:29;99492.13;;;32.92;34.86
12963;BME280;6546;49.882;8.666;2022-08-04T11:05:08;99503.34;;;33.05;35.42
12963;BME280;6546;49.882;8.666;2022-08-04T11:07:38;99498.34;;;33.10;33.92
12963;BME280;6546;49.882;8.666;2022-08-04T11:10:08;99501.59;;;33.14;35.15
12963;BME280;6546;49.882;8.666;2022-08-04T11:12:37;99501.28;;;33.17;33.83
12963;BME280;6546;49.882;8.666;2022-08-04T11:15:10;99493.72;;;33.12;33.93
12963;BME280;6546;49.882;8.666;2022-08-04T11:17:40;99495.69;;;33.10;33.42
12963;BME280;6546;49.882;8.666;2022-08-04T11:20:15;99487.78;;;33.09;34.54
12963;BME280;6546;49.882;8.666;2022-08-04T11:22:49;99489.19;;;33.13;34.62
12963;BME280;6546;49.882;8.666;2022-08-04T11:25:19;99480.59;;;33.27;32.31
12963;BME280;6546;49.882;8.666;2022-08-04T11:27:54;99491.50;;;33.43;31.76
12963;BME280;6546;49.882;8.666;2022-08-04T11:30:31;99489.00;;;33.42;32.44
12963;BME280;6546;49.882;8.666;2022-08-04T11:33:20;99490.66;;;33.43;30.15
12963;BME280;6546;49.882;8.666;2022-08-04T11:35:51;99491.44;;;33.53;29.91
12963;BME280;6546;49.882;8.666;2022-08-04T11:38:26;99496.44;;;33.48;31.22
12963;BME280;6546;49.882;8.666;2022-08-04T11:40:57;99495.44;;;33.49;30.84
12963;BME280;6546;49.882;8.666;2022-08-04T11:43:32;99493.47;;;33.51;31.55
12963;BME280;6546;49.882;8.666;2022-08-04T11:46:06;99494.91;;;33.45;30.13
12963;BME280;6546;49.882;8.666;2022-08-04T11:48:36;99497.72;;;33.44;30.60
12963;BME280;6546;49.882;8.666;2022-08-04T11:51:06;99491.25;;;33.37;31.17
12963;BME280;6546;49.882;8.666;2022-08-04T11:53:37;99492.34;;;33.44;30.90
12963;BME280;6546;49.882;8.666;2022-08-04T11:56:06;99494.84;;;33.55;30.59
12963;BME280;6546;49.882;8.666;2022-08-04T11:58:36;99487.56;;;33.47;31.07
12963;BME280;6546;49.882;8.666;2022-08-04T12:01:16;99492.63;;;33.50;29.92
12963;BME280;6546;49.882;8.666;2022-08-04T12:03:58;99492.53;;;33.60;29.68
12963;BME280;6546;49.882;8.666;2022-08-04T12:06:30;99487.38;;;33.67;28.85
12963;BME280;6546;49.882;8.666;2022-08-04T12:09:10;99483.38;;;33.71;29.56
12963;BME280;6546;49.882;8.666;2022-08-04T12:11:51;99481.16;;;33.66;30.02
12963;BME280;6546;49.882;8.666;2022-08-04T12:14:25;99477.81;;;33.64;29.64
12963;BME280;6546;49.882;8.666;2022-08-04T12:16:57;99474.75;;;33.59;30.81
12963;BME280;6546;49.882;8.666;2022-08-04T12:19:34;99475.66;;;33.50;31.06
12963;BME280;6546;49.882;8.666;2022-08-04T12:22:04;99474.28;;;33.64;29.20
12963;BME280;6546;49.882;8.666;2022-08-04T12:24:37;99471.16;;;33.68;27.89
12963;BME280;6546;49.882;8.666;2022-08-04T12:27:12;99472.81;;;33.69;28.82
12963;BME280;6546;49.882;8.666;2022-08-04T12:29:47;99473.44;;;33.81;28.57
12963;BME280;6546;49.882;8.666;2022-08-04T12:32:21;99468.41;;;34.04;28.23
12963;BME280;6546;49.882;8.666;2022-08-04T12:34:59;99462.09;;;34.13;28.33
12963;BME280;6546;49.882;8.666;2022-08-04T12:37:36;99459.47;;;34.21;28.32
12963;BME280;6546;49.882;8.666;2022-08-04T12:40:08;99455.41;;;34.17;28.89
12963;BME280;6546;49.882;8.666;2022-08-04T12:42:44;99452.69;;;34.09;29.39
12963;BME280;6546;49.882;8.666;2022-08-04T12:45:12;99451.28;;;33.97;28.79
12963;BME280;6546;49.882;8.666;2022-08-04T12:47:40;99448.31;;;34.08;28.85
12963;BME280;6546;49.882;8.666;2022-08-04T12:50:09;99452.53;;;34.11;28.71
12963;BME280;6546;49.882;8.666;2022-08-04T12:52:48;99460.53;;;34.03;29.71
12963;BME280;6546;49.882;8.666;2022-08-04T12:55:16;99453.22;;;33.95;29.64
12963;BME280;6546;49.882;8.666;2022-08-04T12:57:46;99457.47;;;33.97;28.63
12963;BME280;6546;49.882;8.666;2022-08-04T13:00:22;99457.16;;;33.83;28.80
12963;BME280;6546;49.882;8.666;2022-08-04T13:02:50;99453.72;;;33.72;29.91
12963;BME280;6546;49.882;8.666;2022-08-04T13:05:28;99456.13;;;33.75;30.63
12963;BME280;6546;49.882;8.666;2022-08-04T13:07:57;99446.13;;;33.86;29.93
12963;BME280;6546;49.882;8.666;2022-08-04T13:10:24;99447.19;;;33.93;29.63
12963;BME280;6546;49.882;8.666;2022-08-04T13:12:54;99442.03;;;33.99;29.19
12963;BME280;6546;49.882;8.666;2022-08-04T13:15:23;99449.53;;;33.96;28.55
12963;BME280;6546;49.882;8.666;2022-08-04T13:17:54;99444.56;;;33.83;28.97
12963;BME280;6546;49.882;8.666;2022-08-04T13:20:26;99443.66;;;33.74;30.13
12963;BME280;6546;49.882;8.666;2022-08-04T13:23:09;99433.72;;;33.67;29.54
12963;BME280;6546;49.882;8.666;2022-08-04T13:25:39;99433.44;;;33.52;30.05
12963;BME280;6546;49.882;8.666;2022-08-04T13:28:12;99441.94;;;33.47;30.83
12963;BME280;6546;49.882;8.666;2022-08-04T13:30:43;99437.63;;;33.37;30.36
12963;BME280;6546;49.882;8.666;2022-08-04T13:33:11;99425.91;;;33.38;30.73
12963;BME280;6546;49.882;8.666;2022-08-04T13:35:43;99419.78;;;33.45;29.23
12963;BME280;6546;49.882;8.666;2022-08-04T13:38:11;99424.44;;;33.61;29.29
12963;BME280;6546;49.882;8.666;2022-08-04T13:40:40;99422.59;;;33.80;29.18
12963;BME280;6546;49.882;8.666;2022-08-04T13:43:08;99416.06;;;33.82;28.58
12963;BME280;6546;49.882;8.666;2022-08-04T13:45:36;99412.78;;;33.70;29.55
12963;BME280;6546;49.882;8.666;2022-08-04T13:48:06;99407.41;;;33.70;29.46
12963;BME280;6546;49.882;8.666;2022-08-04T13:50:35;99397.31;;;33.64;29.92
12963;BME280;6546;49.882;8.666;2022-08-04T13:53:04;99391.94;;;33.64;29.63
12963;BME280;6546;49.882;8.666;2022-08-04T13:55:33;99396.47;;;33.64;29.96
12963;BME280;6546;49.882;8.666;2022-08-04T13:58:06;99389.09;;;33.66;30.89
12963;BME280;6546;49.882;8.666;2022-08-04T14:00:41;99387.72;;;33.80;29.83
12963;BME280;6546;49.882;8.666;2022-08-04T14:03:09;99383.47;;;33.77;29.49
12963;BME280;6546;49.882;8.666;2022-08-04T14:05:38;99389.75;;;33.60;30.36
12963;BME280;6546;49.882;8.666;2022-08-04T14:08:14;99385.31;;;33.50;29.92
12963;BME280;6546;49.882;8.666;2022-08-04T14:10:52;99384.31;;;33.34;30.43